createdAt,value
2016-09-13T00:00:54.284Z,0
2016-09-13T00:01:53.964Z,0
2016-09-13T00:02:53.959Z,0
2016-09-13T00:03:54.901Z,0
2016-09-13T00:04:54.259Z,0
2016-09-13T00:05:53.932Z,0
2016-09-13T00:06:54.265Z,0
2016-09-13T00:07:54.233Z,0
2016-09-13T00:08:54.240Z,0
2016-09-13T00:09:53.908Z,0
2016-09-13T00:10:54.225Z,0
2016-09-13T00:11:53.911Z,0
2016-09-13T00:12:54.207Z,0
2016-09-13T00:13:54.219Z,0
2016-09-13T00:14:54.204Z,0
2016-09-13T00:15:53.879Z,0
2016-09-13T00:16:54.496Z,0
2016-09-13T00:17:54.181Z,0
2016-09-13T00:18:54.171Z,0
2016-09-13T00:19:54.467Z,0
2016-09-13T00:20:53.853Z,0
2016-09-13T00:21:53.852Z,0
2016-09-13T00:22:53.830Z,0
2016-09-13T00:23:54.342Z,0
2016-09-13T00:24:53.813Z,0
2016-09-13T00:25:54.148Z,0
2016-09-13T00:26:53.801Z,0
2016-09-13T00:27:53.798Z,0
2016-09-13T00:28:53.790Z,0
2016-09-13T00:29:53.776Z,0
2016-09-13T00:30:54.089Z,0
2016-09-13T00:31:54.075Z,0
2016-09-13T00:32:53.760Z,0
2016-09-13T00:33:54.071Z,0
2016-09-13T00:34:54.065Z,0
2016-09-13T00:35:53.740Z,0
2016-09-13T00:36:53.737Z,0
2016-09-13T00:37:54.040Z,0
2016-09-13T00:38:54.035Z,0
2016-09-13T00:39:53.714Z,0
2016-09-13T00:40:53.707Z,0
2016-09-13T00:41:53.706Z,0
2016-09-13T00:42:53.688Z,0
2016-09-13T00:43:53.689Z,0
2016-09-13T00:44:53.676Z,0
2016-09-13T00:45:53.665Z,0
2016-09-13T00:46:53.664Z,0
2016-09-13T00:47:53.652Z,0
2016-09-13T00:48:53.981Z,0
2016-09-13T00:49:53.654Z,0
2016-09-13T00:50:53.952Z,0
2016-09-13T00:51:53.951Z,0
2016-09-13T00:52:53.627Z,0
2016-09-13T00:53:53.628Z,0
2016-09-13T00:54:53.612Z,0
2016-09-13T00:55:53.605Z,0
2016-09-13T00:56:53.919Z,0
2016-09-13T00:57:53.915Z,0
2016-09-13T00:58:53.897Z,0
2016-09-13T00:59:54.514Z,0
2016-09-13T01:00:53.888Z,0
2016-09-13T01:01:53.879Z,0
2016-09-13T01:02:53.555Z,0
2016-09-13T01:03:53.857Z,0
2016-09-13T01:04:53.857Z,0
2016-09-13T01:05:53.846Z,0
2016-09-13T01:06:53.527Z,0
2016-09-13T01:07:53.514Z,0
2016-09-13T01:08:53.517Z,0
2016-09-13T01:09:53.823Z,0
2016-09-13T01:10:54.132Z,0
2016-09-13T01:11:53.492Z,0
2016-09-13T01:12:53.792Z,0
2016-09-13T01:13:53.477Z,0
2016-09-13T01:14:53.472Z,0
2016-09-13T01:15:53.460Z,0
2016-09-13T01:16:53.456Z,0
2016-09-13T01:17:53.757Z,0
2016-09-13T01:18:53.776Z,0
2016-09-13T01:19:54.063Z,0
2016-09-13T01:20:54.155Z,0
2016-09-13T01:21:53.428Z,0
2016-09-13T01:22:53.411Z,0
2016-09-13T01:23:54.039Z,0
2016-09-13T01:24:53.718Z,0
2016-09-13T01:25:53.391Z,0
2016-09-13T01:26:53.704Z,0
2016-09-13T01:27:53.692Z,0
2016-09-13T01:28:53.685Z,0
2016-09-13T01:29:53.364Z,0
2016-09-13T01:30:53.989Z,0
2016-09-13T01:31:53.355Z,0
2016-09-13T01:32:53.974Z,0
2016-09-13T01:33:53.337Z,0
2016-09-13T01:34:53.322Z,0
2016-09-13T01:35:53.326Z,0
2016-09-13T01:36:53.629Z,0
2016-09-13T01:37:53.312Z,0
2016-09-13T01:38:53.927Z,0
2016-09-13T01:39:53.290Z,0
2016-09-13T01:40:53.595Z,0
2016-09-13T01:41:53.900Z,0
2016-09-13T01:42:53.277Z,0
2016-09-13T01:43:53.266Z,0
2016-09-13T01:44:53.562Z,0
2016-09-13T01:45:53.886Z,0
2016-09-13T01:46:53.568Z,0
2016-09-13T01:47:53.233Z,0
2016-09-13T01:48:53.542Z,0
2016-09-13T01:49:53.218Z,0
2016-09-13T01:50:53.217Z,0
2016-09-13T01:51:53.534Z,0
2016-09-13T01:52:53.512Z,0
2016-09-13T01:53:53.199Z,0
2016-09-13T01:54:53.179Z,0
2016-09-13T01:55:53.176Z,0
2016-09-13T01:56:53.481Z,0
2016-09-13T01:57:54.108Z,0
2016-09-13T01:58:53.469Z,0
2016-09-13T01:59:53.145Z,0
2016-09-13T02:00:53.136Z,0
2016-09-13T02:01:53.131Z,0
2016-09-13T02:02:53.450Z,0
2016-09-13T02:03:53.433Z,0
2016-09-13T02:04:53.117Z,0
2016-09-13T02:05:53.433Z,0
2016-09-13T02:06:53.411Z,0
2016-09-13T02:07:53.407Z,0
2016-09-13T02:08:53.402Z,0
2016-09-13T02:09:53.075Z,0
2016-09-13T02:10:53.076Z,0
2016-09-13T02:11:53.063Z,0
2016-09-13T02:12:53.690Z,0
2016-09-13T02:13:53.362Z,0
2016-09-13T02:14:53.035Z,0
2016-09-13T02:15:53.347Z,0
2016-09-13T02:16:53.357Z,0
2016-09-13T02:17:53.015Z,0
2016-09-13T02:18:53.327Z,0
2016-09-13T02:19:53.010Z,0
2016-09-13T02:20:53.307Z,0
2016-09-13T02:21:52.991Z,0
2016-09-13T02:22:53.295Z,0
2016-09-13T02:23:53.492Z,0
2016-09-13T02:24:53.294Z,0
2016-09-13T02:25:52.962Z,0
2016-09-13T02:26:52.954Z,0
2016-09-13T02:27:53.260Z,0
2016-09-13T02:28:53.569Z,0
2016-09-13T02:29:52.932Z,0
2016-09-13T02:30:53.240Z,0
2016-09-13T02:31:53.232Z,0
2016-09-13T02:32:53.218Z,0
2016-09-13T02:33:53.215Z,0
2016-09-13T02:34:52.904Z,0
2016-09-13T02:35:53.199Z,0
2016-09-13T02:36:53.208Z,0
2016-09-13T02:37:52.881Z,0
2016-09-13T02:38:53.174Z,0
2016-09-13T02:39:53.488Z,0
2016-09-13T02:40:53.161Z,0
2016-09-13T02:41:53.474Z,0
2016-09-13T02:42:52.843Z,0
2016-09-13T02:43:53.146Z,0
2016-09-13T02:44:53.136Z,0
2016-09-13T02:45:53.131Z,0
2016-09-13T02:46:52.806Z,0
2016-09-13T02:47:53.117Z,0
2016-09-13T02:48:53.109Z,0
2016-09-13T02:49:53.095Z,0
2016-09-13T02:50:52.788Z,0
2016-09-13T02:51:52.773Z,0
2016-09-13T02:52:53.088Z,0
2016-09-13T02:53:52.789Z,0
2016-09-13T02:54:52.753Z,0
2016-09-13T02:55:52.749Z,0
2016-09-13T02:56:52.745Z,0
2016-09-13T02:57:52.727Z,0
2016-09-13T02:58:53.351Z,0
2016-09-13T02:59:52.725Z,0
2016-09-13T03:00:52.714Z,0
2016-09-13T03:01:53.346Z,0
2016-09-13T03:02:52.690Z,0
2016-09-13T03:03:52.688Z,0
2016-09-13T03:04:52.994Z,0
2016-09-13T03:05:52.987Z,0
2016-09-13T03:06:53.653Z,0
2016-09-13T03:07:52.991Z,0
2016-09-13T03:08:53.603Z,0
2016-09-13T03:09:53.287Z,0
2016-09-13T03:10:53.274Z,0
2016-09-13T03:11:52.994Z,0
2016-09-13T03:12:52.947Z,0
2016-09-13T03:13:53.256Z,0
2016-09-13T03:14:52.607Z,0
2016-09-13T03:15:53.237Z,0
2016-09-13T03:16:52.922Z,0
2016-09-13T03:17:52.902Z,0
2016-09-13T03:18:52.895Z,0
2016-09-13T03:19:52.884Z,0
2016-09-13T03:20:53.214Z,0
2016-09-13T03:21:52.889Z,0
2016-09-13T03:22:53.182Z,0
2016-09-13T03:23:52.854Z,0
2016-09-13T03:24:53.169Z,0
2016-09-13T03:25:52.536Z,0
2016-09-13T03:26:53.155Z,0
2016-09-13T03:27:52.515Z,0
2016-09-13T03:28:52.820Z,0
2016-09-13T03:29:52.506Z,0
2016-09-13T03:30:52.820Z,0
2016-09-13T03:31:52.805Z,0
2016-09-13T03:32:52.789Z,0
2016-09-13T03:33:52.468Z,0
2016-09-13T03:34:53.109Z,0
2016-09-13T03:35:52.455Z,0
2016-09-13T03:36:52.774Z,0
2016-09-13T03:37:52.436Z,0
2016-09-13T03:38:53.062Z,0
2016-09-13T03:39:52.742Z,0
2016-09-13T03:40:52.723Z,0
2016-09-13T03:41:52.720Z,0
2016-09-13T03:42:52.393Z,0
2016-09-13T03:43:52.703Z,0
2016-09-13T03:44:52.699Z,0
2016-09-13T03:45:52.378Z,0
2016-09-13T03:46:53.005Z,0
2016-09-13T03:47:52.988Z,0
2016-09-13T03:48:52.363Z,0
2016-09-13T03:49:52.350Z,0
2016-09-13T03:50:52.357Z,0
2016-09-13T03:51:52.653Z,0
2016-09-13T03:52:52.642Z,0
2016-09-13T03:53:52.317Z,0
2016-09-13T03:54:52.631Z,0
2016-09-13T03:55:52.630Z,0
2016-09-13T03:56:52.314Z,0
2016-09-13T03:57:52.602Z,0
2016-09-13T03:58:52.910Z,0
2016-09-13T03:59:52.586Z,0
2016-09-13T04:00:52.271Z,0
2016-09-13T04:01:52.267Z,0
2016-09-13T04:02:52.569Z,0
2016-09-13T04:03:52.880Z,0
2016-09-13T04:04:52.553Z,0
2016-09-13T04:05:52.561Z,0
2016-09-13T04:06:52.853Z,0
2016-09-13T04:07:52.543Z,0
2016-09-13T04:08:52.830Z,0
2016-09-13T04:09:52.850Z,0
2016-09-13T04:10:52.209Z,0
2016-09-13T04:11:52.533Z,0
2016-09-13T04:12:52.505Z,0
2016-09-13T04:13:53.133Z,0
2016-09-13T04:14:52.166Z,0
2016-09-13T04:15:52.483Z,0
2016-09-13T04:16:52.197Z,0
2016-09-13T04:17:52.480Z,0
2016-09-13T04:18:52.136Z,0
2016-09-13T04:19:52.757Z,0
2016-09-13T04:20:52.744Z,0
2016-09-13T04:21:52.120Z,0
2016-09-13T04:22:52.101Z,0
2016-09-13T04:23:53.148Z,0
2016-09-13T04:24:52.094Z,0
2016-09-13T04:25:52.391Z,0
2016-09-13T04:26:52.073Z,0
2016-09-13T04:27:52.369Z,0
2016-09-13T04:28:52.057Z,0
2016-09-13T04:29:52.376Z,0
2016-09-13T04:30:52.058Z,0
2016-09-13T04:31:52.041Z,0
2016-09-13T04:32:52.022Z,0
2016-09-13T04:33:52.039Z,0
2016-09-13T04:34:52.325Z,0
2016-09-13T04:35:52.318Z,0
2016-09-13T04:36:52.006Z,0
2016-09-13T04:37:51.992Z,0
2016-09-13T04:38:52.608Z,0
2016-09-13T04:39:51.973Z,0
2016-09-13T04:40:52.288Z,0
2016-09-13T04:41:51.956Z,0
2016-09-13T04:42:52.588Z,0
2016-09-13T04:43:52.257Z,0
2016-09-13T04:44:52.259Z,0
2016-09-13T04:45:51.949Z,0
2016-09-13T04:46:52.238Z,0
2016-09-13T04:47:52.236Z,0
2016-09-13T04:48:52.234Z,0
2016-09-13T04:49:51.899Z,0
2016-09-13T04:50:52.524Z,0
2016-09-13T04:51:52.514Z,0
2016-09-13T04:52:52.189Z,0
2016-09-13T04:53:52.488Z,0
2016-09-13T04:54:51.869Z,0
2016-09-13T04:55:52.167Z,0
2016-09-13T04:56:52.161Z,0
2016-09-13T04:57:51.843Z,0
2016-09-13T04:58:52.147Z,0
2016-09-13T04:59:51.829Z,0
2016-09-13T05:00:52.135Z,0
2016-09-13T05:01:52.126Z,0
2016-09-13T05:02:52.111Z,0
2016-09-13T05:03:52.144Z,5
2016-09-13T05:04:51.783Z,5
2016-09-13T05:05:52.086Z,5
2016-09-13T05:06:52.435Z,5
2016-09-13T05:07:52.070Z,5
2016-09-13T05:08:52.064Z,5
2016-09-13T05:09:52.372Z,5
2016-09-13T05:10:51.731Z,5
2016-09-13T05:11:51.735Z,5
2016-09-13T05:12:51.775Z,5
2016-09-13T05:13:52.025Z,10
2016-09-13T05:14:51.720Z,10
2016-09-13T05:15:52.323Z,10
2016-09-13T05:16:51.698Z,10
2016-09-13T05:17:51.997Z,10
2016-09-13T05:18:52.310Z,10
2016-09-13T05:19:51.685Z,10
2016-09-13T05:20:51.670Z,15
2016-09-13T05:21:51.965Z,15
2016-09-13T05:22:51.650Z,15
2016-09-13T05:23:51.959Z,15
2016-09-13T05:24:52.260Z,15
2016-09-13T05:25:51.955Z,15
2016-09-13T05:26:51.922Z,15
2016-09-13T05:27:51.607Z,15
2016-09-13T05:28:51.906Z,20
2016-09-13T05:29:52.223Z,20
2016-09-13T05:30:51.904Z,20
2016-09-13T05:31:51.886Z,20
2016-09-13T05:32:51.622Z,20
2016-09-13T05:33:51.870Z,20
2016-09-13T05:34:51.870Z,25
2016-09-13T05:35:51.859Z,25
2016-09-13T05:36:52.163Z,25
2016-09-13T05:37:52.152Z,25
2016-09-13T05:38:51.524Z,25
2016-09-13T05:39:51.842Z,25
2016-09-13T05:40:51.823Z,25
2016-09-13T05:41:51.514Z,30
2016-09-13T05:42:51.800Z,30
2016-09-13T05:43:51.488Z,30
2016-09-13T05:44:51.473Z,30
2016-09-13T05:45:51.471Z,30
2016-09-13T05:46:51.772Z,30
2016-09-13T05:47:51.460Z,30
2016-09-13T05:48:52.066Z,35
2016-09-13T05:49:51.751Z,35
2016-09-13T05:50:52.481Z,35
2016-09-13T05:51:51.751Z,35
2016-09-13T05:52:51.748Z,35
2016-09-13T05:53:52.037Z,35
2016-09-13T05:54:51.413Z,35
2016-09-13T05:55:52.019Z,40
2016-09-13T05:56:51.704Z,40
2016-09-13T05:57:51.697Z,40
2016-09-13T05:58:52.310Z,40
2016-09-13T05:59:51.993Z,40
2016-09-13T06:00:51.822Z,40
2016-09-13T06:01:51.973Z,40
2016-09-13T06:02:52.333Z,45
2016-09-13T06:03:51.959Z,45
2016-09-13T06:04:51.332Z,45
2016-09-13T06:05:51.959Z,45
2016-09-13T06:06:51.640Z,45
2016-09-13T06:07:51.957Z,45
2016-09-13T06:08:51.306Z,45
2016-09-13T06:09:51.297Z,45
2016-09-13T06:10:51.288Z,50
2016-09-13T06:11:51.624Z,50
2016-09-13T06:12:51.321Z,50
2016-09-13T06:13:51.896Z,50
2016-09-13T06:14:51.567Z,50
2016-09-13T06:15:51.246Z,50
2016-09-13T06:16:51.242Z,50
2016-09-13T06:17:51.234Z,55
2016-09-13T06:18:51.545Z,55
2016-09-13T06:19:51.214Z,55
2016-09-13T06:20:51.839Z,55
2016-09-13T06:21:51.512Z,55
2016-09-13T06:22:51.506Z,55
2016-09-13T06:23:51.704Z,55
2016-09-13T06:24:51.183Z,55
2016-09-13T06:25:52.108Z,55
2016-09-13T06:26:51.804Z,60
2016-09-13T06:27:51.469Z,60
2016-09-13T06:28:51.463Z,60
2016-09-13T06:29:51.780Z,60
2016-09-13T06:30:51.775Z,60
2016-09-13T06:31:51.455Z,60
2016-09-13T06:32:51.765Z,60
2016-09-13T06:33:51.437Z,60
2016-09-13T06:34:51.422Z,60
2016-09-13T06:35:51.428Z,65
2016-09-13T06:36:51.722Z,65
2016-09-13T06:37:51.731Z,65
2016-09-13T06:38:51.086Z,65
2016-09-13T06:39:51.089Z,65
2016-09-13T06:40:51.375Z,65
2016-09-13T06:41:51.083Z,65
2016-09-13T06:42:51.361Z,65
2016-09-13T06:43:51.054Z,65
2016-09-13T06:44:51.050Z,70
2016-09-13T06:45:51.033Z,70
2016-09-13T06:46:51.020Z,70
2016-09-13T06:47:51.026Z,70
2016-09-13T06:48:51.329Z,70
2016-09-13T06:49:51.637Z,70
2016-09-13T06:50:51.317Z,70
2016-09-13T06:51:51.006Z,70
2016-09-13T06:52:51.620Z,70
2016-09-13T06:53:50.991Z,75
2016-09-13T06:54:50.963Z,75
2016-09-13T06:55:51.308Z,75
2016-09-13T06:56:51.266Z,75
2016-09-13T06:57:50.973Z,75
2016-09-13T06:58:50.949Z,75
2016-09-13T06:59:51.273Z,75
2016-09-13T07:00:51.243Z,75
2016-09-13T07:01:51.237Z,75
2016-09-13T07:02:51.233Z,75
2016-09-13T07:03:51.237Z,80
2016-09-13T07:04:51.218Z,80
2016-09-13T07:05:50.899Z,80
2016-09-13T07:06:51.208Z,80
2016-09-13T07:07:51.231Z,80
2016-09-13T07:08:50.895Z,80
2016-09-13T07:09:51.189Z,80
2016-09-13T07:10:50.873Z,80
2016-09-13T07:11:51.515Z,80
2016-09-13T07:12:50.904Z,80
2016-09-13T07:13:51.193Z,80
2016-09-13T07:14:51.154Z,80
2016-09-13T07:15:51.151Z,80
2016-09-13T07:16:50.831Z,80
2016-09-13T07:17:51.139Z,80
2016-09-13T07:18:50.839Z,80
2016-09-13T07:19:50.830Z,80
2016-09-13T07:20:51.129Z,85
2016-09-13T07:21:51.120Z,85
2016-09-13T07:22:50.788Z,85
2016-09-13T07:23:50.789Z,85
2016-09-13T07:24:51.094Z,85
2016-09-13T07:25:51.089Z,85
2016-09-13T07:26:51.084Z,85
2016-09-13T07:27:51.701Z,85
2016-09-13T07:28:51.061Z,90
2016-09-13T07:29:51.064Z,90
2016-09-13T07:30:50.746Z,90
2016-09-13T07:31:50.745Z,90
2016-09-13T07:32:51.047Z,90
2016-09-13T07:33:51.043Z,90
2016-09-13T07:34:51.035Z,90
2016-09-13T07:35:50.715Z,90
2016-09-13T07:36:50.711Z,90
2016-09-13T07:37:50.697Z,95
2016-09-13T07:38:50.698Z,95
2016-09-13T07:39:50.687Z,95
2016-09-13T07:40:51.633Z,95
2016-09-13T07:41:50.987Z,95
2016-09-13T07:42:50.676Z,95
2016-09-13T07:43:50.986Z,95
2016-09-13T07:44:50.976Z,95
2016-09-13T07:45:51.728Z,95
2016-09-13T07:46:51.911Z,100
2016-09-13T07:47:51.588Z,100
2016-09-13T07:48:50.949Z,100
2016-09-13T07:49:51.266Z,100
2016-09-13T07:50:51.263Z,100
2016-09-13T07:51:50.928Z,100
2016-09-13T07:52:50.933Z,105
2016-09-13T07:53:50.914Z,105
2016-09-13T07:54:50.626Z,105
2016-09-13T07:55:50.597Z,105
2016-09-13T07:56:50.590Z,110
2016-09-13T07:57:51.220Z,110
2016-09-13T07:58:51.200Z,110
2016-09-13T07:59:51.208Z,110
2016-09-13T08:00:50.570Z,110
2016-09-13T08:01:51.192Z,115
2016-09-13T08:02:50.553Z,115
2016-09-13T08:03:50.561Z,115
2016-09-13T08:04:51.162Z,115
2016-09-13T08:05:50.852Z,115
2016-09-13T08:06:50.541Z,115
2016-09-13T08:07:50.846Z,140
2016-09-13T08:08:51.151Z,385
2016-09-13T08:09:50.513Z,400
2016-09-13T08:10:51.141Z,275
2016-09-13T08:11:51.131Z,525
2016-09-13T08:12:50.812Z,405
2016-09-13T08:13:50.496Z,145
2016-09-13T08:14:50.809Z,315
2016-09-13T08:15:51.107Z,640
2016-09-13T08:16:51.118Z,445
2016-09-13T08:17:51.105Z,275
2016-09-13T08:18:50.784Z,385
2016-09-13T08:19:50.465Z,355
2016-09-13T08:20:50.457Z,270
2016-09-13T08:21:50.466Z,220
2016-09-13T08:22:50.458Z,220
2016-09-13T08:23:50.762Z,195
2016-09-13T08:24:51.275Z,145
2016-09-13T08:25:51.071Z,135
2016-09-13T08:26:51.373Z,135
2016-09-13T08:27:50.748Z,135
2016-09-13T08:28:50.782Z,130
2016-09-13T08:29:50.429Z,130
2016-09-13T08:30:51.059Z,130
2016-09-13T08:31:50.732Z,130
2016-09-13T08:32:50.722Z,130
2016-09-13T08:33:50.734Z,125
2016-09-13T08:34:51.022Z,125
2016-09-13T08:35:50.705Z,125
2016-09-13T08:36:50.392Z,125
2016-09-13T08:37:51.008Z,130
2016-09-13T08:38:50.691Z,135
2016-09-13T08:39:50.686Z,125
2016-09-13T08:40:50.687Z,125
2016-09-13T08:41:50.367Z,125
2016-09-13T08:42:50.678Z,125
2016-09-13T08:43:50.989Z,130
2016-09-13T08:44:50.663Z,130
2016-09-13T08:45:50.971Z,130
2016-09-13T08:46:50.343Z,130
2016-09-13T08:47:50.653Z,135
2016-09-13T08:48:50.648Z,130
2016-09-13T08:49:50.990Z,135
2016-09-13T08:50:50.334Z,150
2016-09-13T08:51:50.319Z,175
2016-09-13T08:52:50.322Z,185
2016-09-13T08:53:50.937Z,155
2016-09-13T08:54:50.633Z,150
2016-09-13T08:55:50.626Z,150
2016-09-13T08:56:50.620Z,140
2016-09-13T08:57:50.609Z,145
2016-09-13T08:58:50.288Z,135
2016-09-13T08:59:50.606Z,135
2016-09-13T09:00:50.904Z,140
2016-09-13T09:01:50.917Z,135
2016-09-13T09:02:50.278Z,135
2016-09-13T09:03:50.897Z,135
2016-09-13T09:04:50.907Z,140
2016-09-13T09:05:50.571Z,145
2016-09-13T09:06:50.589Z,140
2016-09-13T09:07:50.249Z,135
2016-09-13T09:08:50.873Z,140
2016-09-13T09:09:50.561Z,140
2016-09-13T09:10:50.546Z,145
2016-09-13T09:11:50.551Z,140
2016-09-13T09:12:51.264Z,140
2016-09-13T09:13:51.167Z,145
2016-09-13T09:14:50.842Z,150
2016-09-13T09:15:50.532Z,140
2016-09-13T09:16:50.208Z,140
2016-09-13T09:17:50.836Z,140
2016-09-13T09:18:50.197Z,140
2016-09-13T09:19:50.512Z,140
2016-09-13T09:20:50.201Z,140
2016-09-13T09:21:50.191Z,140
2016-09-13T09:22:50.189Z,140
2016-09-13T09:23:50.496Z,140
2016-09-13T09:24:50.179Z,140
2016-09-13T09:25:50.180Z,145
2016-09-13T09:26:50.795Z,145
2016-09-13T09:27:50.477Z,150
2016-09-13T09:28:50.470Z,165
2016-09-13T09:29:50.475Z,170
2016-09-13T09:30:50.467Z,165
2016-09-13T09:31:50.148Z,255
2016-09-13T09:32:50.459Z,280
2016-09-13T09:33:50.449Z,180
2016-09-13T09:34:50.443Z,160
2016-09-13T09:35:50.455Z,150
2016-09-13T09:36:50.122Z,145
2016-09-13T09:37:50.124Z,155
2016-09-13T09:38:50.121Z,180
2016-09-13T09:39:50.426Z,180
2016-09-13T09:40:50.426Z,150
2016-09-13T09:41:50.106Z,150
2016-09-13T09:42:50.426Z,150
2016-09-13T09:43:50.409Z,150
2016-09-13T09:44:50.730Z,150
2016-09-13T09:45:50.099Z,155
2016-09-13T09:46:50.113Z,155
2016-09-13T09:47:50.723Z,160
2016-09-13T09:48:50.397Z,170
2016-09-13T09:49:50.695Z,165
2016-09-13T09:50:50.381Z,160
2016-09-13T09:51:50.073Z,150
2016-09-13T09:52:50.060Z,150
2016-09-13T09:53:50.373Z,155
2016-09-13T09:54:50.046Z,155
2016-09-13T09:55:50.046Z,160
2016-09-13T09:56:50.038Z,180
2016-09-13T09:57:50.046Z,235
2016-09-13T09:58:50.032Z,250
2016-09-13T09:59:50.029Z,200
2016-09-13T10:00:50.971Z,160
2016-09-13T10:01:50.331Z,190
2016-09-13T10:02:50.644Z,155
2016-09-13T10:03:50.637Z,160
2016-09-13T10:04:50.018Z,160
2016-09-13T10:05:50.322Z,160
2016-09-13T10:06:50.313Z,165
2016-09-13T10:07:50.323Z,210
2016-09-13T10:08:50.632Z,220
2016-09-13T10:09:49.989Z,210
2016-09-13T10:10:49.985Z,170
2016-09-13T10:11:50.613Z,195
2016-09-13T10:12:50.340Z,235
2016-09-13T10:13:50.110Z,240
2016-09-13T10:14:49.982Z,205
2016-09-13T10:15:50.592Z,210
2016-09-13T10:16:49.962Z,185
2016-09-13T10:17:50.266Z,175
2016-09-13T10:18:50.263Z,200
2016-09-13T10:19:49.949Z,210
2016-09-13T10:20:49.951Z,195
2016-09-13T10:21:49.940Z,165
2016-09-13T10:22:50.571Z,165
2016-09-13T10:23:49.945Z,165
2016-09-13T10:24:51.076Z,170
2016-09-13T10:25:49.935Z,170
2016-09-13T10:26:50.240Z,205
2016-09-13T10:27:49.924Z,225
2016-09-13T10:28:50.549Z,180
2016-09-13T10:29:50.225Z,170
2016-09-13T10:30:50.228Z,210
2016-09-13T10:31:49.909Z,215
2016-09-13T10:32:50.215Z,170
2016-09-13T10:33:49.912Z,185
2016-09-13T10:34:49.897Z,220
2016-09-13T10:35:50.204Z,235
2016-09-13T10:36:50.202Z,400
2016-09-13T10:37:50.196Z,435
2016-09-13T10:38:49.883Z,575
2016-09-13T10:39:49.876Z,825
2016-09-13T10:40:49.880Z,855
2016-09-13T10:41:50.187Z,645
2016-09-13T10:42:49.875Z,630
2016-09-13T10:43:50.508Z,860
2016-09-13T10:44:50.494Z,655
2016-09-13T10:45:49.859Z,325
2016-09-13T10:46:49.849Z,265
2016-09-13T10:47:50.488Z,515
2016-09-13T10:48:50.157Z,710
2016-09-13T10:49:50.163Z,490
2016-09-13T10:50:49.849Z,720
2016-09-13T10:51:49.850Z,810
2016-09-13T10:52:49.851Z,585
2016-09-13T10:53:50.155Z,370
2016-09-13T10:54:49.840Z,675
2016-09-13T10:55:50.139Z,760
2016-09-13T10:56:49.833Z,530
2016-09-13T10:57:50.155Z,485
2016-09-13T10:58:49.828Z,625
2016-09-13T10:59:50.450Z,970
2016-09-13T11:00:50.464Z,975
2016-09-13T11:01:50.762Z,720
2016-09-13T11:02:50.443Z,1005
2016-09-13T11:03:49.822Z,1445
2016-09-13T11:04:50.128Z,1535
2016-09-13T11:05:50.141Z,1500
2016-09-13T11:06:50.133Z,1485
2016-09-13T11:07:50.451Z,1460
2016-09-13T11:08:50.141Z,1420
2016-09-13T11:09:50.153Z,1440
2016-09-13T11:10:50.142Z,1495
2016-09-13T11:11:50.127Z,1510
2016-09-13T11:12:49.820Z,1515
2016-09-13T11:13:50.441Z,1510
2016-09-13T11:14:49.831Z,1490
2016-09-13T11:15:50.147Z,1455
2016-09-13T11:16:49.832Z,1440
2016-09-13T11:17:50.140Z,1480
2016-09-13T11:18:50.139Z,1500
2016-09-13T11:19:50.149Z,1490
2016-09-13T11:20:50.143Z,1455
2016-09-13T11:21:50.159Z,1455
2016-09-13T11:22:49.835Z,1485
2016-09-13T11:23:50.155Z,1520
2016-09-13T11:24:50.477Z,1555
2016-09-13T11:25:50.166Z,1565
2016-09-13T11:26:49.850Z,1565
2016-09-13T11:27:50.167Z,1580
2016-09-13T11:28:50.493Z,1585
2016-09-13T11:29:49.875Z,1560
2016-09-13T11:30:50.178Z,1515
2016-09-13T11:31:50.186Z,1505
2016-09-13T11:32:50.517Z,1515
2016-09-13T11:33:50.193Z,1540
2016-09-13T11:34:50.822Z,1570
2016-09-13T11:35:49.889Z,1630
2016-09-13T11:36:49.919Z,1755
2016-09-13T11:37:50.207Z,1825
2016-09-13T11:38:49.900Z,1855
2016-09-13T11:39:50.236Z,1860
2016-09-13T11:40:50.844Z,1840
2016-09-13T11:41:49.916Z,1845
2016-09-13T11:42:49.924Z,1830
2016-09-13T11:43:50.242Z,1805
2016-09-13T11:44:50.241Z,1765
2016-09-13T11:45:50.247Z,1740
2016-09-13T11:46:49.943Z,1750
2016-09-13T11:47:50.249Z,1780
2016-09-13T11:48:50.270Z,1800
2016-09-13T11:49:50.280Z,1820
2016-09-13T11:50:50.585Z,1825
2016-09-13T11:51:50.301Z,1860
2016-09-13T11:52:49.977Z,1865
2016-09-13T11:53:49.986Z,1825
2016-09-13T11:54:50.618Z,1775
2016-09-13T11:55:50.305Z,1785
2016-09-13T11:56:50.005Z,1795
2016-09-13T11:57:49.999Z,1770
2016-09-13T11:58:50.018Z,1755
2016-09-13T11:59:50.012Z,1750
2016-09-13T12:00:50.341Z,1750
2016-09-13T12:01:50.395Z,1725
2016-09-13T12:02:50.666Z,1685
2016-09-13T12:03:50.053Z,1650
2016-09-13T12:04:50.665Z,1640
2016-09-13T12:05:50.056Z,1660
2016-09-13T12:06:50.691Z,1670
2016-09-13T12:07:50.089Z,1685
2016-09-13T12:08:50.387Z,1700
2016-09-13T12:09:50.072Z,1715
2016-09-13T12:10:50.087Z,1745
2016-09-13T12:11:50.412Z,1760
2016-09-13T12:12:50.410Z,1770
2016-09-13T12:13:50.747Z,1780
2016-09-13T12:14:50.421Z,1760
2016-09-13T12:15:50.127Z,1740
2016-09-13T12:16:50.439Z,1750
2016-09-13T12:17:50.444Z,1790
2016-09-13T12:18:50.457Z,1815
2016-09-13T12:19:51.093Z,1795
2016-09-13T12:20:50.474Z,1755
2016-09-13T12:21:50.471Z,1740
2016-09-13T12:22:50.472Z,1765
2016-09-13T12:23:50.172Z,1755
2016-09-13T12:24:50.387Z,1705
2016-09-13T12:25:50.498Z,1665
2016-09-13T12:26:50.509Z,1620
2016-09-13T12:27:50.212Z,1575
2016-09-13T12:28:50.525Z,1520
2016-09-13T12:29:50.222Z,1505
2016-09-13T12:30:50.225Z,1500
2016-09-13T12:31:50.230Z,1510
2016-09-13T12:32:50.247Z,1585
2016-09-13T12:33:50.555Z,1615
2016-09-13T12:34:50.275Z,1620
2016-09-13T12:35:50.588Z,1605
2016-09-13T12:36:50.598Z,1600
2016-09-13T12:37:50.593Z,1575
2016-09-13T12:38:50.601Z,1570
2016-09-13T12:39:50.912Z,1520
2016-09-13T12:40:50.923Z,1550
2016-09-13T12:41:50.315Z,1565
2016-09-13T12:42:50.323Z,1580
2016-09-13T12:43:50.326Z,1585
2016-09-13T12:44:50.336Z,1590
2016-09-13T12:45:50.361Z,1610
2016-09-13T12:46:50.657Z,1580
2016-09-13T12:47:50.364Z,1565
2016-09-13T12:48:50.679Z,1585
2016-09-13T12:49:50.708Z,1655
2016-09-13T12:50:50.707Z,1650
2016-09-13T12:51:51.023Z,1605
2016-09-13T12:52:50.710Z,1610
2016-09-13T12:53:50.406Z,1625
2016-09-13T12:54:50.720Z,1630
2016-09-13T12:55:50.733Z,1605
2016-09-13T12:56:51.051Z,1625
2016-09-13T12:57:50.753Z,1595
2016-09-13T12:58:51.077Z,1550
2016-09-13T12:59:50.464Z,1575
2016-09-13T13:00:50.775Z,1595
2016-09-13T13:01:50.484Z,1610
2016-09-13T13:02:50.490Z,1595
2016-09-13T13:03:50.500Z,1570
2016-09-13T13:04:51.116Z,1535
2016-09-13T13:05:51.137Z,1525
2016-09-13T13:06:50.824Z,1525
2016-09-13T13:07:50.831Z,1505
2016-09-13T13:08:50.835Z,1460
2016-09-13T13:09:50.843Z,1380
2016-09-13T13:10:50.562Z,1375
2016-09-13T13:11:52.068Z,1405
2016-09-13T13:12:51.201Z,1445
2016-09-13T13:13:51.508Z,1465
2016-09-13T13:14:50.882Z,1485
2016-09-13T13:15:50.579Z,1505
2016-09-13T13:16:50.915Z,1510
2016-09-13T13:17:51.527Z,1535
2016-09-13T13:18:50.911Z,1535
2016-09-13T13:19:50.611Z,1530
2016-09-13T13:20:50.924Z,1510
2016-09-13T13:21:51.257Z,1480
2016-09-13T13:22:50.622Z,1500
2016-09-13T13:23:50.641Z,1535
2016-09-13T13:24:50.937Z,1490
2016-09-13T13:25:50.640Z,1405
2016-09-13T13:26:50.966Z,1360
2016-09-13T13:27:50.673Z,1375
2016-09-13T13:28:51.285Z,1345
2016-09-13T13:29:51.989Z,1305
2016-09-13T13:30:51.992Z,1285
2016-09-13T13:31:51.665Z,1265
2016-09-13T13:32:50.999Z,1285
2016-09-13T13:33:51.328Z,1335
2016-09-13T13:34:51.334Z,1345
2016-09-13T13:35:51.340Z,1325
2016-09-13T13:36:51.031Z,1300
2016-09-13T13:37:51.043Z,1280
2016-09-13T13:38:51.046Z,1275
2016-09-13T13:39:50.785Z,1245
2016-09-13T13:40:51.061Z,1230
2016-09-13T13:41:50.758Z,1215
2016-09-13T13:42:51.389Z,1220
2016-09-13T13:43:51.378Z,1240
2016-09-13T13:44:50.761Z,1245
2016-09-13T13:45:51.130Z,1255
2016-09-13T13:46:50.773Z,1250
2016-09-13T13:47:51.410Z,1265
2016-09-13T13:48:50.791Z,1260
2016-09-13T13:49:50.789Z,1250
2016-09-13T13:50:50.801Z,1230
2016-09-13T13:51:51.123Z,1225
2016-09-13T13:52:51.124Z,1225
2016-09-13T13:53:51.463Z,1230
2016-09-13T13:54:50.818Z,1235
2016-09-13T13:55:51.136Z,1240
2016-09-13T13:56:50.834Z,1230
2016-09-13T13:57:50.839Z,1205
2016-09-13T13:58:50.861Z,1175
2016-09-13T13:59:51.180Z,1170
2016-09-13T14:00:51.175Z,1160
2016-09-13T14:01:52.062Z,1125
2016-09-13T14:02:51.516Z,1105
2016-09-13T14:03:51.525Z,1135
2016-09-13T14:04:51.198Z,1160
2016-09-13T14:05:50.878Z,1165
2016-09-13T14:06:51.202Z,1165